sensor_id;sensor_type;location;lat;lon;timestamp;P1;durP1;ratioP1;P2;durP2;ratioP2
13981;SDS011;7065;50.880;5.502;2023-02-02T00:00:35;16.38;;;4.53;;
13981;SDS011;7065;50.880;5.502;2023-02-02T00:03:01;13.10;;;4.03;;
13981;SDS011;7065;50.880;5.502;2023-02-02T00:05:26;14.00;;;3.95;;
13981;SDS011;7065;50.880;5.502;2023-02-02T00:07:52;16.13;;;4.07;;
13981;SDS011;7065;50.880;5.502;2023-02-02T00:10:18;18.30;;;4.50;;
13981;SDS011;7065;50.880;5.502;2023-02-02T00:12:43;21.17;;;4.78;;
13981;SDS011;7065;50.880;5.502;2023-02-02T00:15:09;13.98;;;3.85;;
13981;SDS011;7065;50.880;5.502;2023-02-02T00:17:35;19.45;;;4.85;;
13981;SDS011;7065;50.880;5.502;2023-02-02T00:20:01;15.68;;;3.90;;
13981;SDS011;7065;50.880;5.502;2023-02-02T00:22:27;15.05;;;4.03;;
13981;SDS011;7065;50.880;5.502;2023-02-02T00:24:53;14.77;;;3.53;;
13981;SDS011;7065;50.880;5.502;2023-02-02T00:27:18;16.52;;;4.25;;
13981;SDS011;7065;50.880;5.502;2023-02-02T00:29:44;13.10;;;3.60;;
13981;SDS011;7065;50.880;5.502;2023-02-02T00:32:10;17.83;;;4.25;;
13981;SDS011;7065;50.880;5.502;2023-02-02T00:34:35;16.13;;;3.95;;
13981;SDS011;7065;50.880;5.502;2023-02-02T00:37:01;16.13;;;4.63;;
13981;SDS011;7065;50.880;5.502;2023-02-02T00:39:27;15.13;;;4.68;;
13981;SDS011;7065;50.880;5.502;2023-02-02T00:41:53;13.15;;;3.97;;
13981;SDS011;7065;50.880;5.502;2023-02-02T00:44:19;14.32;;;4.68;;
13981;SDS011;7065;50.880;5.502;2023-02-02T00:47:04;14.60;;;3.95;;
13981;SDS011;7065;50.880;5.502;2023-02-02T00:49:29;13.13;;;4.38;;
13981;SDS011;7065;50.880;5.502;2023-02-02T00:51:55;16.30;;;4.68;;
13981;SDS011;7065;50.880;5.502;2023-02-02T00:54:21;14.88;;;4.22;;
13981;SDS011;7065;50.880;5.502;2023-02-02T00:56:47;16.17;;;4.40;;
13981;SDS011;7065;50.880;5.502;2023-02-02T00:59:12;11.57;;;4.10;;
13981;SDS011;7065;50.880;5.502;2023-02-02T01:01:39;16.20;;;4.32;;
13981;SDS011;7065;50.880;5.502;2023-02-02T01:04:04;10.68;;;3.92;;
13981;SDS011;7065;50.880;5.502;2023-02-02T01:06:30;14.20;;;4.05;;
13981;SDS011;7065;50.880;5.502;2023-02-02T01:08:56;15.88;;;4.00;;
13981;SDS011;7065;50.880;5.502;2023-02-02T01:11:22;9.90;;;3.47;;
13981;SDS011;7065;50.880;5.502;2023-02-02T01:13:49;15.18;;;3.75;;
13981;SDS011;7065;50.880;5.502;2023-02-02T01:16:15;16.27;;;3.95;;
13981;SDS011;7065;50.880;5.502;2023-02-02T01:18:41;12.50;;;3.47;;
13981;SDS011;7065;50.880;5.502;2023-02-02T01:21:09;12.00;;;3.53;;
13981;SDS011;7065;50.880;5.502;2023-02-02T01:23:36;13.60;;;3.92;;
13981;SDS011;7065;50.880;5.502;2023-02-02T01:26:03;13.32;;;3.47;;
13981;SDS011;7065;50.880;5.502;2023-02-02T01:28:31;12.95;;;3.75;;
13981;SDS011;7065;50.880;5.502;2023-02-02T01:30:57;12.85;;;3.67;;
13981;SDS011;7065;50.880;5.502;2023-02-02T01:33:28;15.98;;;3.72;;
13981;SDS011;7065;50.880;5.502;2023-02-02T01:35:54;17.33;;;4.45;;
13981;SDS011;7065;50.880;5.502;2023-02-02T01:38:21;22.23;;;4.32;;
13981;SDS011;7065;50.880;5.502;2023-02-02T01:40:52;14.55;;;3.90;;
13981;SDS011;7065;50.880;5.502;2023-02-02T01:46:12;11.77;;;3.80;;
13981;SDS011;7065;50.880;5.502;2023-02-02T01:48:45;16.90;;;3.88;;
13981;SDS011;7065;50.880;5.502;2023-02-02T01:51:15;11.10;;;3.70;;
13981;SDS011;7065;50.880;5.502;2023-02-02T01:53:44;15.23;;;3.55;;
13981;SDS011;7065;50.880;5.502;2023-02-02T01:56:13;14.00;;;3.85;;
13981;SDS011;7065;50.880;5.502;2023-02-02T01:58:43;12.75;;;3.30;;
13981;SDS011;7065;50.880;5.502;2023-02-02T02:01:10;17.65;;;4.10;;
13981;SDS011;7065;50.880;5.502;2023-02-02T02:03:36;19.95;;;4.13;;
13981;SDS011;7065;50.880;5.502;2023-02-02T02:06:03;13.55;;;3.38;;
13981;SDS011;7065;50.880;5.502;2023-02-02T02:08:36;14.63;;;3.35;;
13981;SDS011;7065;50.880;5.502;2023-02-02T02:11:08;11.90;;;2.90;;
13981;SDS011;7065;50.880;5.502;2023-02-02T02:13:35;17.33;;;4.13;;
13981;SDS011;7065;50.880;5.502;2023-02-02T02:16:24;17.48;;;4.28;;
13981;SDS011;7065;50.880;5.502;2023-02-02T02:22:48;15.68;;;4.18;;
13981;SDS011;7065;50.880;5.502;2023-02-02T02:29:21;12.18;;;3.53;;
13981;SDS011;7065;50.880;5.502;2023-02-02T02:43:02;12.65;;;3.42;;
13981;SDS011;7065;50.880;5.502;2023-02-02T02:45:35;21.85;;;4.13;;
13981;SDS011;7065;50.880;5.502;2023-02-02T02:48:02;13.05;;;3.88;;
13981;SDS011;7065;50.880;5.502;2023-02-02T02:50:28;17.08;;;4.25;;
13981;SDS011;7065;50.880;5.502;2023-02-02T02:53:03;19.60;;;4.13;;
13981;SDS011;7065;50.880;5.502;2023-02-02T02:55:43;10.65;;;3.28;;
13981;SDS011;7065;50.880;5.502;2023-02-02T02:58:12;14.60;;;3.35;;
13981;SDS011;7065;50.880;5.502;2023-02-02T03:00:54;10.77;;;3.03;;
13981;SDS011;7065;50.880;5.502;2023-02-02T03:08:57;11.70;;;3.50;;
13981;SDS011;7065;50.880;5.502;2023-02-02T03:11:33;12.23;;;3.53;;
13981;SDS011;7065;50.880;5.502;2023-02-02T03:14:00;13.45;;;3.45;;
13981;SDS011;7065;50.880;5.502;2023-02-02T03:16:26;17.92;;;4.15;;
13981;SDS011;7065;50.880;5.502;2023-02-02T03:18:52;12.48;;;3.28;;
13981;SDS011;7065;50.880;5.502;2023-02-02T03:21:20;15.88;;;4.10;;
13981;SDS011;7065;50.880;5.502;2023-02-02T03:23:46;17.05;;;3.63;;
13981;SDS011;7065;50.880;5.502;2023-02-02T03:26:11;15.95;;;3.30;;
13981;SDS011;7065;50.880;5.502;2023-02-02T03:28:37;11.10;;;3.35;;
13981;SDS011;7065;50.880;5.502;2023-02-02T03:31:03;12.27;;;3.42;;
13981;SDS011;7065;50.880;5.502;2023-02-02T03:33:29;13.18;;;3.00;;
13981;SDS011;7065;50.880;5.502;2023-02-02T03:35:57;13.60;;;3.80;;
13981;SDS011;7065;50.880;5.502;2023-02-02T03:38:22;12.75;;;3.63;;
13981;SDS011;7065;50.880;5.502;2023-02-02T03:40:49;12.38;;;3.08;;
13981;SDS011;7065;50.880;5.502;2023-02-02T03:43:18;15.25;;;3.95;;
13981;SDS011;7065;50.880;5.502;2023-02-02T03:45:45;17.75;;;4.90;;
13981;SDS011;7065;50.880;5.502;2023-02-02T03:48:11;13.02;;;4.03;;
13981;SDS011;7065;50.880;5.502;2023-02-02T03:50:36;14.85;;;3.17;;
13981;SDS011;7065;50.880;5.502;2023-02-02T03:53:03;17.65;;;4.15;;
13981;SDS011;7065;50.880;5.502;2023-02-02T03:55:29;15.77;;;4.15;;
13981;SDS011;7065;50.880;5.502;2023-02-02T03:57:55;14.32;;;3.22;;
13981;SDS011;7065;50.880;5.502;2023-02-02T04:00:21;12.68;;;3.22;;
13981;SDS011;7065;50.880;5.502;2023-02-02T04:02:46;13.65;;;3.65;;
13981;SDS011;7065;50.880;5.502;2023-02-02T04:05:12;11.68;;;3.22;;
13981;SDS011;7065;50.880;5.502;2023-02-02T04:07:37;11.13;;;3.28;;
13981;SDS011;7065;50.880;5.502;2023-02-02T04:10:03;12.50;;;3.67;;
13981;SDS011;7065;50.880;5.502;2023-02-02T04:12:29;19.35;;;3.83;;
13981;SDS011;7065;50.880;5.502;2023-02-02T04:14:55;14.30;;;3.70;;
13981;SDS011;7065;50.880;5.502;2023-02-02T04:17:21;15.50;;;3.63;;
13981;SDS011;7065;50.880;5.502;2023-02-02T04:19:47;16.58;;;3.67;;
13981;SDS011;7065;50.880;5.502;2023-02-02T04:22:12;16.33;;;4.10;;
13981;SDS011;7065;50.880;5.502;2023-02-02T04:24:38;12.93;;;3.22;;
13981;SDS011;7065;50.880;5.502;2023-02-02T04:27:04;13.23;;;3.35;;
13981;SDS011;7065;50.880;5.502;2023-02-02T04:29:29;12.40;;;4.20;;
13981;SDS011;7065;50.880;5.502;2023-02-02T04:31:56;13.48;;;3.75;;
13981;SDS011;7065;50.880;5.502;2023-02-02T04:34:21;14.35;;;3.47;;
13981;SDS011;7065;50.880;5.502;2023-02-02T04:36:47;14.13;;;3.78;;
13981;SDS011;7065;50.880;5.502;2023-02-02T04:39:13;11.95;;;3.20;;
13981;SDS011;7065;50.880;5.502;2023-02-02T04:41:38;15.65;;;4.00;;
13981;SDS011;7065;50.880;5.502;2023-02-02T04:44:04;15.60;;;3.95;;
13981;SDS011;7065;50.880;5.502;2023-02-02T04:46:35;14.52;;;3.53;;
13981;SDS011;7065;50.880;5.502;2023-02-02T04:49:01;11.13;;;3.38;;
13981;SDS011;7065;50.880;5.502;2023-02-02T04:51:27;12.63;;;3.65;;
13981;SDS011;7065;50.880;5.502;2023-02-02T04:53:52;18.13;;;4.70;;
13981;SDS011;7065;50.880;5.502;2023-02-02T04:56:18;10.52;;;3.50;;
13981;SDS011;7065;50.880;5.502;2023-02-02T04:58:44;13.00;;;3.30;;
13981;SDS011;7065;50.880;5.502;2023-02-02T05:01:11;12.90;;;3.53;;
13981;SDS011;7065;50.880;5.502;2023-02-02T05:03:40;15.20;;;3.72;;
13981;SDS011;7065;50.880;5.502;2023-02-02T05:06:05;15.23;;;3.92;;
13981;SDS011;7065;50.880;5.502;2023-02-02T05:08:31;15.10;;;3.92;;
13981;SDS011;7065;50.880;5.502;2023-02-02T05:10:57;13.93;;;3.67;;
13981;SDS011;7065;50.880;5.502;2023-02-02T05:13:24;11.13;;;3.55;;
13981;SDS011;7065;50.880;5.502;2023-02-02T05:15:50;16.23;;;3.80;;
13981;SDS011;7065;50.880;5.502;2023-02-02T05:18:15;13.60;;;3.67;;
13981;SDS011;7065;50.880;5.502;2023-02-02T05:20:41;22.17;;;4.18;;
13981;SDS011;7065;50.880;5.502;2023-02-02T05:23:07;21.23;;;3.85;;
13981;SDS011;7065;50.880;5.502;2023-02-02T05:25:32;15.95;;;4.53;;
13981;SDS011;7065;50.880;5.502;2023-02-02T05:27:58;22.88;;;4.18;;
13981;SDS011;7065;50.880;5.502;2023-02-02T05:30:24;13.60;;;3.40;;
13981;SDS011;7065;50.880;5.502;2023-02-02T05:32:49;15.07;;;3.72;;
13981;SDS011;7065;50.880;5.502;2023-02-02T05:35:15;13.88;;;4.38;;
13981;SDS011;7065;50.880;5.502;2023-02-02T05:37:41;14.30;;;3.67;;
13981;SDS011;7065;50.880;5.502;2023-02-02T05:40:08;16.50;;;3.97;;
13981;SDS011;7065;50.880;5.502;2023-02-02T05:42:34;14.48;;;3.20;;
13981;SDS011;7065;50.880;5.502;2023-02-02T05:45:00;17.92;;;4.30;;
13981;SDS011;7065;50.880;5.502;2023-02-02T05:47:26;14.43;;;3.55;;
13981;SDS011;7065;50.880;5.502;2023-02-02T05:49:52;11.93;;;3.53;;
13981;SDS011;7065;50.880;5.502;2023-02-02T05:52:18;18.63;;;4.20;;
13981;SDS011;7065;50.880;5.502;2023-02-02T05:54:48;12.80;;;3.05;;
13981;SDS011;7065;50.880;5.502;2023-02-02T05:57:13;15.40;;;4.20;;
13981;SDS011;7065;50.880;5.502;2023-02-02T05:59:39;16.58;;;3.40;;
13981;SDS011;7065;50.880;5.502;2023-02-02T06:02:05;10.57;;;3.67;;
13981;SDS011;7065;50.880;5.502;2023-02-02T06:04:30;13.82;;;3.65;;
13981;SDS011;7065;50.880;5.502;2023-02-02T06:06:56;16.42;;;3.33;;
13981;SDS011;7065;50.880;5.502;2023-02-02T06:09:22;16.70;;;4.05;;
13981;SDS011;7065;50.880;5.502;2023-02-02T06:11:49;11.52;;;3.33;;
13981;SDS011;7065;50.880;5.502;2023-02-02T06:14:15;9.50;;;2.72;;
13981;SDS011;7065;50.880;5.502;2023-02-02T06:16:40;14.50;;;3.97;;
13981;SDS011;7065;50.880;5.502;2023-02-02T06:19:06;14.48;;;3.47;;
13981;SDS011;7065;50.880;5.502;2023-02-02T06:21:32;16.90;;;4.05;;
13981;SDS011;7065;50.880;5.502;2023-02-02T06:23:58;15.50;;;3.15;;
13981;SDS011;7065;50.880;5.502;2023-02-02T06:26:24;12.50;;;3.55;;
13981;SDS011;7065;50.880;5.502;2023-02-02T06:28:51;14.73;;;3.65;;
13981;SDS011;7065;50.880;5.502;2023-02-02T06:31:18;14.43;;;3.22;;
13981;SDS011;7065;50.880;5.502;2023-02-02T06:33:44;13.02;;;3.28;;
13981;SDS011;7065;50.880;5.502;2023-02-02T06:36:11;15.30;;;3.40;;
13981;SDS011;7065;50.880;5.502;2023-02-02T06:38:37;11.85;;;3.70;;
13981;SDS011;7065;50.880;5.502;2023-02-02T06:41:03;14.90;;;3.40;;
13981;SDS011;7065;50.880;5.502;2023-02-02T06:43:28;14.63;;;3.63;;
13981;SDS011;7065;50.880;5.502;2023-02-02T06:45:57;11.70;;;3.67;;
13981;SDS011;7065;50.880;5.502;2023-02-02T06:48:23;16.77;;;3.65;;
13981;SDS011;7065;50.880;5.502;2023-02-02T06:50:49;15.15;;;3.47;;
13981;SDS011;7065;50.880;5.502;2023-02-02T06:53:15;10.00;;;4.18;;
13981;SDS011;7065;50.880;5.502;2023-02-02T06:55:51;16.38;;;3.97;;
13981;SDS011;7065;50.880;5.502;2023-02-02T06:58:18;17.38;;;4.13;;
13981;SDS011;7065;50.880;5.502;2023-02-02T07:00:44;13.90;;;4.15;;
13981;SDS011;7065;50.880;5.502;2023-02-02T07:03:11;17.65;;;4.40;;
13981;SDS011;7065;50.880;5.502;2023-02-02T07:05:36;13.80;;;3.83;;
13981;SDS011;7065;50.880;5.502;2023-02-02T07:08:03;17.55;;;4.15;;
13981;SDS011;7065;50.880;5.502;2023-02-02T07:10:29;12.45;;;3.58;;
13981;SDS011;7065;50.880;5.502;2023-02-02T07:12:55;11.38;;;3.22;;
13981;SDS011;7065;50.880;5.502;2023-02-02T07:15:21;14.52;;;4.13;;
13981;SDS011;7065;50.880;5.502;2023-02-02T07:17:47;11.98;;;4.53;;
13981;SDS011;7065;50.880;5.502;2023-02-02T07:20:12;18.25;;;4.65;;
13981;SDS011;7065;50.880;5.502;2023-02-02T07:22:38;15.15;;;4.43;;
13981;SDS011;7065;50.880;5.502;2023-02-02T07:25:05;22.90;;;4.78;;
13981;SDS011;7065;50.880;5.502;2023-02-02T07:27:32;17.08;;;5.15;;
13981;SDS011;7065;50.880;5.502;2023-02-02T07:29:58;20.13;;;5.65;;
13981;SDS011;7065;50.880;5.502;2023-02-02T07:32:24;15.05;;;5.38;;
13981;SDS011;7065;50.880;5.502;2023-02-02T07:34:49;13.32;;;4.43;;
13981;SDS011;7065;50.880;5.502;2023-02-02T07:37:15;13.05;;;4.70;;
13981;SDS011;7065;50.880;5.502;2023-02-02T07:39:42;15.00;;;4.55;;
13981;SDS011;7065;50.880;5.502;2023-02-02T07:42:11;15.55;;;5.43;;
13981;SDS011;7065;50.880;5.502;2023-02-02T07:44:37;15.50;;;4.65;;
13981;SDS011;7065;50.880;5.502;2023-02-02T07:47:03;14.70;;;4.53;;
13981;SDS011;7065;50.880;5.502;2023-02-02T07:49:29;18.25;;;5.40;;
13981;SDS011;7065;50.880;5.502;2023-02-02T07:51:56;17.10;;;5.10;;
13981;SDS011;7065;50.880;5.502;2023-02-02T07:54:21;15.00;;;4.78;;
13981;SDS011;7065;50.880;5.502;2023-02-02T07:56:47;15.07;;;5.13;;
13981;SDS011;7065;50.880;5.502;2023-02-02T07:59:13;17.33;;;4.72;;
13981;SDS011;7065;50.880;5.502;2023-02-02T08:01:39;13.65;;;4.28;;
13981;SDS011;7065;50.880;5.502;2023-02-02T08:04:05;16.63;;;5.10;;
13981;SDS011;7065;50.880;5.502;2023-02-02T08:06:32;17.17;;;4.53;;
13981;SDS011;7065;50.880;5.502;2023-02-02T08:08:59;12.02;;;4.85;;
13981;SDS011;7065;50.880;5.502;2023-02-02T08:11:26;14.35;;;4.05;;
13981;SDS011;7065;50.880;5.502;2023-02-02T08:13:54;13.95;;;4.82;;
13981;SDS011;7065;50.880;5.502;2023-02-02T08:16:21;14.05;;;4.78;;
13981;SDS011;7065;50.880;5.502;2023-02-02T08:18:48;11.93;;;5.00;;
13981;SDS011;7065;50.880;5.502;2023-02-02T08:21:14;14.88;;;4.85;;
13981;SDS011;7065;50.880;5.502;2023-02-02T08:23:40;15.00;;;4.88;;
13981;SDS011;7065;50.880;5.502;2023-02-02T08:26:17;16.73;;;6.00;;
13981;SDS011;7065;50.880;5.502;2023-02-02T08:28:43;19.15;;;6.65;;
13981;SDS011;7065;50.880;5.502;2023-02-02T08:31:12;17.33;;;5.57;;
13981;SDS011;7065;50.880;5.502;2023-02-02T08:33:41;14.50;;;6.15;;
13981;SDS011;7065;50.880;5.502;2023-02-02T08:36:17;14.07;;;5.20;;
13981;SDS011;7065;50.880;5.502;2023-02-02T08:38:44;14.27;;;5.55;;
13981;SDS011;7065;50.880;5.502;2023-02-02T08:41:11;15.77;;;6.70;;
13981;SDS011;7065;50.880;5.502;2023-02-02T08:43:39;23.63;;;7.57;;
13981;SDS011;7065;50.880;5.502;2023-02-02T08:46:05;15.07;;;6.10;;
13981;SDS011;7065;50.880;5.502;2023-02-02T08:48:33;14.70;;;5.93;;
13981;SDS011;7065;50.880;5.502;2023-02-02T08:50:59;19.48;;;6.13;;
13981;SDS011;7065;50.880;5.502;2023-02-02T08:53:25;14.05;;;6.10;;
13981;SDS011;7065;50.880;5.502;2023-02-02T08:56:02;13.27;;;5.95;;
13981;SDS011;7065;50.880;5.502;2023-02-02T08:58:30;18.65;;;6.22;;
13981;SDS011;7065;50.880;5.502;2023-02-02T09:03:30;17.55;;;5.70;;
13981;SDS011;7065;50.880;5.502;2023-02-02T09:05:55;16.45;;;5.63;;
13981;SDS011;7065;50.880;5.502;2023-02-02T09:08:21;16.98;;;5.63;;
13981;SDS011;7065;50.880;5.502;2023-02-02T09:10:47;17.58;;;5.97;;
13981;SDS011;7065;50.880;5.502;2023-02-02T09:13:12;14.55;;;5.03;;
13981;SDS011;7065;50.880;5.502;2023-02-02T09:15:38;14.60;;;4.90;;
13981;SDS011;7065;50.880;5.502;2023-02-02T09:18:04;11.15;;;5.25;;
13981;SDS011;7065;50.880;5.502;2023-02-02T09:20:29;11.73;;;4.65;;
13981;SDS011;7065;50.880;5.502;2023-02-02T09:22:55;14.35;;;4.80;;
13981;SDS011;7065;50.880;5.502;2023-02-02T09:25:21;16.63;;;5.03;;
13981;SDS011;7065;50.880;5.502;2023-02-02T09:27:49;16.45;;;4.50;;
13981;SDS011;7065;50.880;5.502;2023-02-02T09:30:15;11.57;;;5.18;;
13981;SDS011;7065;50.880;5.502;2023-02-02T09:32:41;14.30;;;4.43;;
13981;SDS011;7065;50.880;5.502;2023-02-02T09:35:07;11.98;;;3.90;;
13981;SDS011;7065;50.880;5.502;2023-02-02T09:37:34;10.65;;;4.28;;
13981;SDS011;7065;50.880;5.502;2023-02-02T09:39:59;12.30;;;3.92;;
13981;SDS011;7065;50.880;5.502;2023-02-02T09:42:28;12.55;;;3.55;;
13981;SDS011;7065;50.880;5.502;2023-02-02T09:50:28;9.60;;;3.33;;
13981;SDS011;7065;50.880;5.502;2023-02-02T09:53:07;10.75;;;3.92;;
13981;SDS011;7065;50.880;5.502;2023-02-02T09:55:43;10.55;;;3.53;;
13981;SDS011;7065;50.880;5.502;2023-02-02T10:00:49;13.40;;;3.22;;
13981;SDS011;7065;50.880;5.502;2023-02-02T10:03:21;10.52;;;3.72;;
13981;SDS011;7065;50.880;5.502;2023-02-02T10:06:11;8.98;;;3.17;;
13981;SDS011;7065;50.880;5.502;2023-02-02T10:08:41;12.07;;;3.70;;
13981;SDS011;7065;50.880;5.502;2023-02-02T10:11:48;11.23;;;3.20;;
13981;SDS011;7065;50.880;5.502;2023-02-02T10:14:14;11.88;;;3.47;;
13981;SDS011;7065;50.880;5.502;2023-02-02T10:16:54;10.93;;;4.00;;
13981;SDS011;7065;50.880;5.502;2023-02-02T10:19:24;12.27;;;3.60;;
13981;SDS011;7065;50.880;5.502;2023-02-02T10:21:56;14.07;;;3.47;;
13981;SDS011;7065;50.880;5.502;2023-02-02T10:24:28;10.63;;;3.38;;
13981;SDS011;7065;50.880;5.502;2023-02-02T10:26:59;10.68;;;3.17;;
13981;SDS011;7065;50.880;5.502;2023-02-02T10:32:25;9.48;;;3.15;;
13981;SDS011;7065;50.880;5.502;2023-02-02T10:37:39;11.80;;;3.95;;
13981;SDS011;7065;50.880;5.502;2023-02-02T10:48:49;12.32;;;2.88;;
13981;SDS011;7065;50.880;5.502;2023-02-02T10:51:25;15.10;;;3.35;;
13981;SDS011;7065;50.880;5.502;2023-02-02T10:54:01;10.85;;;2.88;;
13981;SDS011;7065;50.880;5.502;2023-02-02T10:56:48;6.85;;;2.65;;
13981;SDS011;7065;50.880;5.502;2023-02-02T10:59:23;14.77;;;3.00;;
13981;SDS011;7065;50.880;5.502;2023-02-02T11:01:55;11.55;;;3.22;;
13981;SDS011;7065;50.880;5.502;2023-02-02T11:04:21;12.85;;;3.80;;
13981;SDS011;7065;50.880;5.502;2023-02-02T11:07:06;10.68;;;3.35;;
13981;SDS011;7065;50.880;5.502;2023-02-02T11:09:34;10.73;;;3.22;;
13981;SDS011;7065;50.880;5.502;2023-02-02T11:14:58;10.73;;;3.05;;
13981;SDS011;7065;50.880;5.502;2023-02-02T11:17:51;12.00;;;3.47;;
13981;SDS011;7065;50.880;5.502;2023-02-02T11:20:23;11.32;;;3.28;;
13981;SDS011;7065;50.880;5.502;2023-02-02T11:23:00;5.93;;;2.70;;
13981;SDS011;7065;50.880;5.502;2023-02-02T11:25:35;8.88;;;2.65;;
13981;SDS011;7065;50.880;5.502;2023-02-02T11:28:20;7.55;;;2.83;;
13981;SDS011;7065;50.880;5.502;2023-02-02T11:30:49;7.55;;;2.42;;
13981;SDS011;7065;50.880;5.502;2023-02-02T11:36:01;9.00;;;3.00;;
13981;SDS011;7065;50.880;5.502;2023-02-02T11:38:29;9.15;;;2.85;;
13981;SDS011;7065;50.880;5.502;2023-02-02T11:43:29;6.97;;;3.15;;
13981;SDS011;7065;50.880;5.502;2023-02-02T11:46:06;10.65;;;3.08;;
13981;SDS011;7065;50.880;5.502;2023-02-02T11:48:46;7.20;;;2.80;;
13981;SDS011;7065;50.880;5.502;2023-02-02T11:51:37;7.10;;;2.63;;
13981;SDS011;7065;50.880;5.502;2023-02-02T11:54:17;8.60;;;3.03;;
13981;SDS011;7065;50.880;5.502;2023-02-02T11:56:51;8.90;;;2.92;;
13981;SDS011;7065;50.880;5.502;2023-02-02T12:04:37;6.45;;;2.50;;
13981;SDS011;7065;50.880;5.502;2023-02-02T12:09:57;9.10;;;3.00;;
13981;SDS011;7065;50.880;5.502;2023-02-02T12:15:26;12.00;;;3.05;;
13981;SDS011;7065;50.880;5.502;2023-02-02T12:31:08;8.10;;;2.50;;
13981;SDS011;7065;50.880;5.502;2023-02-02T12:50:49;6.20;;;2.25;;
13981;SDS011;7065;50.880;5.502;2023-02-02T13:10:26;12.25;;;3.20;;
13981;SDS011;7065;50.880;5.502;2023-02-02T13:13:16;8.18;;;2.90;;
13981;SDS011;7065;50.880;5.502;2023-02-02T13:15:48;6.28;;;2.35;;
13981;SDS011;7065;50.880;5.502;2023-02-02T13:18:23;7.75;;;2.47;;
13981;SDS011;7065;50.880;5.502;2023-02-02T13:21:00;9.35;;;2.67;;
13981;SDS011;7065;50.880;5.502;2023-02-02T13:23:29;10.90;;;2.78;;
13981;SDS011;7065;50.880;5.502;2023-02-02T13:31:17;10.43;;;2.63;;
13981;SDS011;7065;50.880;5.502;2023-02-02T13:33:53;8.18;;;2.95;;
13981;SDS011;7065;50.880;5.502;2023-02-02T13:36:28;8.68;;;2.20;;
13981;SDS011;7065;50.880;5.502;2023-02-02T13:39:00;7.32;;;2.35;;
13981;SDS011;7065;50.880;5.502;2023-02-02T13:41:35;6.45;;;2.17;;
13981;SDS011;7065;50.880;5.502;2023-02-02T13:46:58;7.95;;;2.50;;
13981;SDS011;7065;50.880;5.502;2023-02-02T13:49:33;4.03;;;2.20;;
13981;SDS011;7065;50.880;5.502;2023-02-02T13:55:15;7.43;;;2.75;;
13981;SDS011;7065;50.880;5.502;2023-02-02T14:00:55;6.07;;;2.50;;
13981;SDS011;7065;50.880;5.502;2023-02-02T14:03:36;7.57;;;2.08;;
13981;SDS011;7065;50.880;5.502;2023-02-02T14:06:16;5.95;;;2.03;;
13981;SDS011;7065;50.880;5.502;2023-02-02T14:14:09;4.93;;;2.05;;
13981;SDS011;7065;50.880;5.502;2023-02-02T14:17:06;8.02;;;2.20;;
13981;SDS011;7065;50.880;5.502;2023-02-02T14:24:40;7.15;;;2.30;;
13981;SDS011;7065;50.880;5.502;2023-02-02T14:34:51;8.25;;;2.13;;
13981;SDS011;7065;50.880;5.502;2023-02-02T14:45:26;5.88;;;2.20;;
13981;SDS011;7065;50.880;5.502;2023-02-02T14:47:59;6.53;;;2.28;;
13981;SDS011;7065;50.880;5.502;2023-02-02T14:50:43;6.50;;;2.13;;
13981;SDS011;7065;50.880;5.502;2023-02-02T14:55:53;5.93;;;2.35;;
13981;SDS011;7065;50.880;5.502;2023-02-02T15:06:41;10.60;;;2.67;;
13981;SDS011;7065;50.880;5.502;2023-02-02T15:14:26;8.40;;;2.30;;
13981;SDS011;7065;50.880;5.502;2023-02-02T15:28:20;7.25;;;2.80;;
13981;SDS011;7065;50.880;5.502;2023-02-02T15:33:52;6.03;;;2.72;;
13981;SDS011;7065;50.880;5.502;2023-02-02T15:36:25;5.95;;;2.20;;
13981;SDS011;7065;50.880;5.502;2023-02-02T15:38:56;6.43;;;2.60;;
13981;SDS011;7065;50.880;5.502;2023-02-02T15:41:27;5.35;;;2.15;;
13981;SDS011;7065;50.880;5.502;2023-02-02T15:43:57;6.10;;;2.42;;
13981;SDS011;7065;50.880;5.502;2023-02-02T15:46:27;6.72;;;2.80;;
13981;SDS011;7065;50.880;5.502;2023-02-02T15:51:47;6.65;;;2.50;;
13981;SDS011;7065;50.880;5.502;2023-02-02T15:56:52;6.63;;;2.33;;
13981;SDS011;7065;50.880;5.502;2023-02-02T15:59:20;8.10;;;2.58;;
13981;SDS011;7065;50.880;5.502;2023-02-02T16:01:53;4.95;;;2.45;;
13981;SDS011;7065;50.880;5.502;2023-02-02T16:04:41;5.22;;;2.50;;
13981;SDS011;7065;50.880;5.502;2023-02-02T16:07:15;6.18;;;2.58;;
13981;SDS011;7065;50.880;5.502;2023-02-02T16:09:47;6.57;;;2.50;;
13981;SDS011;7065;50.880;5.502;2023-02-02T16:12:14;7.53;;;2.47;;
13981;SDS011;7065;50.880;5.502;2023-02-02T16:14:45;8.40;;;2.13;;
13981;SDS011;7065;50.880;5.502;2023-02-02T16:17:34;7.00;;;2.40;;
13981;SDS011;7065;50.880;5.502;2023-02-02T16:20:04;5.47;;;2.45;;
13981;SDS011;7065;50.880;5.502;2023-02-02T16:22:36;5.95;;;2.45;;
13981;SDS011;7065;50.880;5.502;2023-02-02T16:25:05;11.15;;;2.58;;
13981;SDS011;7065;50.880;5.502;2023-02-02T16:27:39;8.05;;;2.70;;
13981;SDS011;7065;50.880;5.502;2023-02-02T16:30:09;6.70;;;2.63;;
13981;SDS011;7065;50.880;5.502;2023-02-02T16:33:19;6.15;;;2.60;;
13981;SDS011;7065;50.880;5.502;2023-02-02T16:35:58;5.53;;;2.40;;
13981;SDS011;7065;50.880;5.502;2023-02-02T16:38:25;8.70;;;2.58;;
13981;SDS011;7065;50.880;5.502;2023-02-02T16:43:31;6.15;;;2.72;;
13981;SDS011;7065;50.880;5.502;2023-02-02T16:46:02;6.82;;;2.50;;
13981;SDS011;7065;50.880;5.502;2023-02-02T16:51:23;6.53;;;2.50;;
13981;SDS011;7065;50.880;5.502;2023-02-02T16:53:57;5.25;;;2.97;;
13981;SDS011;7065;50.880;5.502;2023-02-02T16:56:41;6.28;;;3.00;;
13981;SDS011;7065;50.880;5.502;2023-02-02T16:59:23;7.32;;;3.30;;
13981;SDS011;7065;50.880;5.502;2023-02-02T17:01:52;5.82;;;3.13;;
13981;SDS011;7065;50.880;5.502;2023-02-02T17:07:11;8.75;;;3.60;;
13981;SDS011;7065;50.880;5.502;2023-02-02T17:09:40;7.95;;;3.50;;
13981;SDS011;7065;50.880;5.502;2023-02-02T17:14:50;8.48;;;3.55;;
13981;SDS011;7065;50.880;5.502;2023-02-02T17:17:23;6.20;;;2.92;;
13981;SDS011;7065;50.880;5.502;2023-02-02T17:19:49;8.18;;;3.42;;
13981;SDS011;7065;50.880;5.502;2023-02-02T17:22:15;10.05;;;3.40;;
13981;SDS011;7065;50.880;5.502;2023-02-02T17:24:44;5.30;;;3.03;;
13981;SDS011;7065;50.880;5.502;2023-02-02T17:27:13;5.88;;;3.17;;
13981;SDS011;7065;50.880;5.502;2023-02-02T17:29:42;6.35;;;2.90;;
13981;SDS011;7065;50.880;5.502;2023-02-02T17:32:10;4.55;;;2.70;;
13981;SDS011;7065;50.880;5.502;2023-02-02T17:34:37;4.90;;;3.05;;
13981;SDS011;7065;50.880;5.502;2023-02-02T17:37:03;7.90;;;3.03;;
13981;SDS011;7065;50.880;5.502;2023-02-02T17:39:29;5.05;;;3.05;;
13981;SDS011;7065;50.880;5.502;2023-02-02T17:41:55;8.40;;;3.45;;
13981;SDS011;7065;50.880;5.502;2023-02-02T17:44:21;8.15;;;3.17;;
13981;SDS011;7065;50.880;5.502;2023-02-02T17:46:46;5.75;;;2.85;;
13981;SDS011;7065;50.880;5.502;2023-02-02T17:49:12;9.93;;;3.22;;
13981;SDS011;7065;50.880;5.502;2023-02-02T17:51:38;5.20;;;2.78;;
13981;SDS011;7065;50.880;5.502;2023-02-02T17:54:11;7.95;;;3.38;;
13981;SDS011;7065;50.880;5.502;2023-02-02T17:56:37;7.40;;;3.53;;
13981;SDS011;7065;50.880;5.502;2023-02-02T17:59:03;7.57;;;3.60;;
13981;SDS011;7065;50.880;5.502;2023-02-02T18:01:29;4.97;;;3.45;;
13981;SDS011;7065;50.880;5.502;2023-02-02T18:03:55;8.10;;;3.75;;
13981;SDS011;7065;50.880;5.502;2023-02-02T18:06:21;7.80;;;3.53;;
13981;SDS011;7065;50.880;5.502;2023-02-02T18:08:47;9.02;;;3.47;;
13981;SDS011;7065;50.880;5.502;2023-02-02T18:11:13;9.27;;;4.10;;
13981;SDS011;7065;50.880;5.502;2023-02-02T18:13:40;5.72;;;3.15;;
13981;SDS011;7065;50.880;5.502;2023-02-02T18:16:07;9.25;;;3.33;;
13981;SDS011;7065;50.880;5.502;2023-02-02T18:18:34;8.98;;;3.55;;
13981;SDS011;7065;50.880;5.502;2023-02-02T18:20:59;6.45;;;3.33;;
13981;SDS011;7065;50.880;5.502;2023-02-02T18:23:25;8.25;;;3.75;;
13981;SDS011;7065;50.880;5.502;2023-02-02T18:25:51;10.35;;;3.85;;
13981;SDS011;7065;50.880;5.502;2023-02-02T18:28:17;7.07;;;4.07;;
13981;SDS011;7065;50.880;5.502;2023-02-02T18:30:43;9.15;;;4.10;;